createdAt,value
2022-11-27T00:00:41.976Z,5.93
2022-11-27T00:01:41.971Z,5.86
2022-11-27T00:02:42.029Z,5.84
2022-11-27T00:03:42.017Z,5.83
2022-11-27T00:04:41.997Z,5.80
2022-11-27T00:05:41.938Z,5.79
2022-11-27T00:06:41.930Z,5.87
2022-11-27T00:07:42.003Z,5.86
2022-11-27T00:08:41.918Z,5.80
2022-11-27T00:09:42.209Z,5.80
2022-11-27T00:10:41.899Z,5.76
2022-11-27T00:11:41.894Z,5.80
2022-11-27T00:12:41.886Z,5.76
2022-11-27T00:13:41.876Z,5.84
2022-11-27T00:14:41.894Z,5.83
2022-11-27T00:15:41.893Z,5.83
2022-11-27T00:16:41.847Z,5.86
2022-11-27T00:17:41.857Z,5.86
2022-11-27T00:18:41.837Z,5.91
2022-11-27T00:19:42.117Z,5.84
2022-11-27T00:20:41.821Z,5.97
2022-11-27T00:21:41.815Z,5.90
2022-11-27T00:22:41.821Z,5.94
2022-11-27T00:23:41.810Z,5.84
2022-11-27T00:24:42.103Z,5.94
2022-11-27T00:25:41.791Z,5.84
2022-11-27T00:26:41.781Z,5.89
2022-11-27T00:27:41.779Z,5.82
2022-11-27T00:28:41.769Z,5.86
2022-11-27T00:29:41.788Z,5.84
2022-11-27T00:31:16.098Z,5.83
2022-11-27T00:31:41.813Z,5.84
2022-11-27T00:32:41.752Z,5.75
2022-11-27T00:33:41.748Z,5.79
2022-11-27T00:34:42.017Z,5.79
2022-11-27T00:35:41.730Z,5.91
2022-11-27T00:36:46.614Z,5.79
2022-11-27T00:37:43.717Z,5.83
2022-11-27T00:38:41.710Z,5.79
2022-11-27T00:39:41.716Z,5.82
2022-11-27T00:40:41.681Z,5.79
2022-11-27T00:41:41.668Z,5.86
2022-11-27T00:42:42.659Z,5.83
2022-11-27T00:43:45.134Z,5.86
2022-11-27T00:44:42.674Z,5.84
2022-11-27T00:45:41.643Z,5.89
2022-11-27T00:46:41.735Z,6.02
2022-11-27T00:47:41.629Z,5.87
2022-11-27T00:48:41.634Z,5.90
2022-11-27T00:49:41.643Z,5.93
2022-11-27T00:50:41.607Z,5.90
2022-11-27T00:51:41.601Z,5.90
2022-11-27T00:52:41.601Z,5.91
2022-11-27T00:53:41.584Z,5.83
2022-11-27T00:54:41.877Z,5.87
2022-11-27T00:55:41.570Z,5.87
2022-11-27T00:56:41.559Z,5.89
2022-11-27T00:57:41.549Z,5.98
2022-11-27T00:58:41.548Z,5.83
2022-11-27T00:59:41.574Z,5.87
2022-11-27T01:00:41.555Z,5.86
2022-11-27T01:01:41.574Z,5.80
2022-11-27T01:02:41.683Z,5.76
2022-11-27T01:03:41.514Z,5.83
2022-11-27T01:04:41.829Z,5.87
2022-11-27T01:05:41.501Z,5.84
2022-11-27T01:06:41.480Z,5.76
2022-11-27T01:07:41.525Z,5.84
2022-11-27T01:08:41.474Z,5.84
2022-11-27T01:09:41.464Z,5.84
2022-11-27T01:10:41.488Z,5.83
2022-11-27T01:11:41.451Z,5.80
2022-11-27T01:12:41.445Z,5.79
2022-11-27T01:13:41.428Z,5.79
2022-11-27T01:14:41.710Z,5.75
2022-11-27T01:15:41.474Z,5.76
2022-11-27T01:16:43.422Z,5.73
2022-11-27T01:17:42.404Z,5.75
2022-11-27T01:18:41.394Z,5.66
2022-11-27T01:19:41.400Z,5.72
2022-11-27T01:20:41.411Z,5.73
2022-11-27T01:21:41.383Z,5.71
2022-11-27T01:22:41.388Z,5.72
2022-11-27T01:23:41.372Z,5.68
2022-11-27T01:24:41.633Z,5.69
2022-11-27T01:25:41.402Z,5.62
2022-11-27T01:26:41.344Z,5.66
2022-11-27T01:27:41.337Z,5.66
2022-11-27T01:28:41.330Z,5.66
2022-11-27T01:29:41.318Z,5.62
2022-11-27T01:30:41.347Z,5.66
2022-11-27T01:31:41.372Z,5.62
2022-11-27T01:32:41.298Z,5.54
2022-11-27T01:33:41.285Z,5.57
2022-11-27T01:34:41.638Z,5.48
2022-11-27T01:35:41.310Z,5.54
2022-11-27T01:36:41.267Z,5.47
2022-11-27T01:37:41.272Z,5.36
2022-11-27T01:38:41.272Z,5.43
2022-11-27T01:39:41.250Z,5.39
2022-11-27T01:40:41.269Z,5.35
2022-11-27T01:41:41.249Z,5.30
2022-11-27T01:42:41.224Z,5.25
2022-11-27T01:43:41.228Z,5.33
2022-11-27T01:44:41.565Z,5.25
2022-11-27T01:45:41.251Z,5.23
2022-11-27T01:46:41.289Z,5.20
2022-11-27T01:47:41.186Z,5.10
2022-11-27T01:48:41.184Z,5.11
2022-11-27T01:49:41.174Z,5.11
2022-11-27T01:50:41.214Z,5.11
2022-11-27T01:51:41.170Z,5.04
2022-11-27T01:52:41.155Z,5.10
2022-11-27T01:53:41.152Z,5.14
2022-11-27T01:54:41.281Z,5.10
2022-11-27T01:55:41.166Z,5.07
2022-11-27T01:56:41.121Z,5.08
2022-11-27T01:57:41.202Z,5.08
2022-11-27T01:58:41.128Z,5.05
2022-11-27T01:59:41.092Z,4.97
2022-11-27T02:00:41.127Z,5.04
2022-11-27T02:01:41.112Z,4.94
2022-11-27T02:02:41.146Z,4.96
2022-11-27T02:03:41.059Z,4.94
2022-11-27T02:04:41.292Z,4.93
2022-11-27T02:05:41.073Z,4.86
2022-11-27T02:06:41.048Z,4.78
2022-11-27T02:07:41.139Z,4.70
2022-11-27T02:08:41.015Z,4.74
2022-11-27T02:09:41.049Z,4.66
2022-11-27T02:10:41.040Z,4.70
2022-11-27T02:11:41.027Z,4.62
2022-11-27T02:12:40.983Z,4.62
2022-11-27T02:13:42.003Z,4.52
2022-11-27T02:14:41.348Z,4.48
2022-11-27T02:15:41.023Z,4.50
2022-11-27T02:16:41.012Z,4.45
2022-11-27T02:17:40.973Z,4.48
2022-11-27T02:18:40.983Z,4.48
2022-11-27T02:19:40.955Z,4.35
2022-11-27T02:20:40.975Z,4.41
2022-11-27T02:21:40.931Z,4.31
2022-11-27T02:22:41.045Z,4.35
2022-11-27T02:23:40.904Z,4.45
2022-11-27T02:24:41.087Z,4.38
2022-11-27T02:25:40.922Z,4.31
2022-11-27T02:26:40.901Z,4.20
2022-11-27T02:27:40.877Z,4.12
2022-11-27T02:28:40.880Z,4.26
2022-11-27T02:29:40.875Z,4.20
2022-11-27T02:30:40.897Z,4.13
2022-11-27T02:31:40.923Z,4.14
2022-11-27T02:32:40.856Z,4.12
2022-11-27T02:33:40.826Z,4.05
2022-11-27T02:34:41.077Z,4.02
2022-11-27T02:35:40.867Z,3.94
2022-11-27T02:36:40.843Z,3.88
2022-11-27T02:37:40.800Z,3.94
2022-11-27T02:38:40.801Z,3.98
2022-11-27T02:39:40.802Z,3.96
2022-11-27T02:40:40.777Z,3.98
2022-11-27T02:41:40.828Z,3.95
2022-11-27T02:42:40.841Z,3.95
2022-11-27T02:43:40.760Z,4.05
2022-11-27T02:44:40.973Z,3.92
2022-11-27T02:45:40.748Z,3.84
2022-11-27T02:46:40.853Z,3.84
2022-11-27T02:47:40.741Z,3.83
2022-11-27T02:48:40.708Z,3.81
2022-11-27T02:49:41.714Z,3.77
2022-11-27T02:50:40.695Z,3.68
2022-11-27T02:51:40.723Z,3.70
2022-11-27T02:52:40.692Z,3.62
2022-11-27T02:53:40.697Z,3.58
2022-11-27T02:54:40.843Z,3.60
2022-11-27T02:55:40.671Z,3.65
2022-11-27T02:56:40.687Z,3.56
2022-11-27T02:57:40.659Z,3.53
2022-11-27T02:58:40.711Z,3.62
2022-11-27T02:59:40.638Z,3.59
2022-11-27T03:00:40.624Z,3.59
2022-11-27T03:01:40.673Z,3.62
2022-11-27T03:02:40.680Z,3.62
2022-11-27T03:03:40.614Z,3.65
2022-11-27T03:04:40.801Z,3.60
2022-11-27T03:05:40.649Z,3.70
2022-11-27T03:06:40.595Z,3.62
2022-11-27T03:07:40.574Z,3.69
2022-11-27T03:08:40.554Z,3.66
2022-11-27T03:09:40.544Z,3.76
2022-11-27T03:10:40.545Z,3.70
2022-11-27T03:11:40.562Z,3.76
2022-11-27T03:12:40.530Z,3.73
2022-11-27T03:13:40.534Z,3.76
2022-11-27T03:14:40.904Z,3.78
2022-11-27T03:15:40.540Z,3.76
2022-11-27T03:16:40.521Z,3.84
2022-11-27T03:17:40.496Z,3.74
2022-11-27T03:18:40.480Z,3.76
2022-11-27T03:19:40.470Z,3.84
2022-11-27T03:20:40.474Z,3.86
2022-11-27T03:21:40.479Z,3.88
2022-11-27T03:22:40.444Z,3.94
2022-11-27T03:23:40.444Z,3.98
2022-11-27T03:24:40.915Z,3.91
2022-11-27T03:25:40.422Z,3.86
2022-11-27T03:26:40.447Z,3.88
2022-11-27T03:27:40.417Z,3.94
2022-11-27T03:28:40.402Z,4.02
2022-11-27T03:29:40.400Z,4.05
2022-11-27T03:30:40.465Z,3.96
2022-11-27T03:31:40.443Z,3.94
2022-11-27T03:32:40.375Z,3.94
2022-11-27T03:33:40.366Z,4.02
2022-11-27T03:34:40.664Z,3.95
2022-11-27T03:35:40.370Z,4.06
2022-11-27T03:36:40.387Z,4.04
2022-11-27T03:37:40.337Z,4.12
2022-11-27T03:38:40.328Z,4.05
2022-11-27T03:39:40.323Z,4.08
2022-11-27T03:40:40.313Z,4.17
2022-11-27T03:41:40.336Z,4.16
2022-11-27T03:42:40.295Z,4.13
2022-11-27T03:43:40.295Z,4.19
2022-11-27T03:44:40.532Z,4.24
2022-11-27T03:45:40.323Z,4.24
2022-11-27T03:46:40.433Z,4.24
2022-11-27T03:47:40.315Z,4.22
2022-11-27T03:48:40.252Z,4.20
2022-11-27T03:49:40.239Z,4.19
2022-11-27T03:50:40.235Z,4.22
2022-11-27T03:51:40.240Z,4.20
2022-11-27T03:52:40.258Z,4.20
2022-11-27T03:53:40.226Z,4.08
2022-11-27T03:54:40.463Z,4.10
2022-11-27T03:55:40.211Z,4.06
2022-11-27T03:56:40.188Z,4.14
2022-11-27T03:57:40.211Z,3.98
2022-11-27T03:58:40.177Z,3.94
2022-11-27T03:59:40.168Z,4.06
2022-11-27T04:00:40.156Z,3.98
2022-11-27T04:01:40.175Z,3.96
2022-11-27T04:02:40.239Z,4.01
2022-11-27T04:03:40.238Z,3.95
2022-11-27T04:04:40.518Z,4.10
2022-11-27T04:05:40.118Z,4.04
2022-11-27T04:06:40.107Z,4.08
2022-11-27T04:07:40.184Z,4.14
2022-11-27T04:08:40.097Z,4.12
2022-11-27T04:09:40.087Z,4.17
2022-11-27T04:10:40.079Z,4.19
2022-11-27T04:11:40.084Z,4.17
2022-11-27T04:12:40.091Z,4.19
2022-11-27T04:13:40.059Z,4.13
2022-11-27T04:14:40.451Z,4.17
2022-11-27T04:15:40.039Z,4.17
2022-11-27T04:16:40.099Z,4.24
2022-11-27T04:17:40.055Z,4.22
2022-11-27T04:18:40.097Z,4.22
2022-11-27T04:19:40.007Z,4.30
2022-11-27T04:20:39.997Z,4.35
2022-11-27T04:21:40.007Z,4.38
2022-11-27T04:22:40.067Z,4.30
2022-11-27T04:23:39.983Z,4.38
2022-11-27T04:24:40.268Z,4.40
2022-11-27T04:25:39.966Z,4.45
2022-11-27T04:26:39.955Z,4.45
2022-11-27T04:27:39.986Z,4.38
2022-11-27T04:28:39.944Z,4.26
2022-11-27T04:29:39.947Z,4.42
2022-11-27T04:30:39.934Z,4.38
2022-11-27T04:31:39.955Z,4.37
2022-11-27T04:32:39.947Z,4.34
2022-11-27T04:33:39.906Z,4.45
2022-11-27T04:34:40.290Z,4.45
2022-11-27T04:35:39.890Z,4.37
2022-11-27T04:36:39.899Z,4.38
2022-11-27T04:37:39.907Z,4.42
2022-11-27T04:38:39.876Z,4.37
2022-11-27T04:39:39.857Z,4.52
2022-11-27T04:40:39.852Z,4.55
2022-11-27T04:41:39.845Z,4.49
2022-11-27T04:42:39.844Z,4.45
2022-11-27T04:43:40.345Z,4.50
2022-11-27T04:44:40.069Z,4.52
2022-11-27T04:45:40.819Z,4.48
2022-11-27T04:46:39.886Z,4.45
2022-11-27T04:47:39.795Z,4.41
2022-11-27T04:48:39.819Z,4.38
2022-11-27T04:49:39.795Z,4.30
2022-11-27T04:50:39.854Z,4.12
2022-11-27T04:51:39.781Z,4.22
2022-11-27T04:52:39.764Z,4.23
2022-11-27T04:53:39.794Z,4.32
2022-11-27T04:54:39.958Z,4.38
2022-11-27T04:55:39.738Z,4.28
2022-11-27T04:56:39.740Z,4.35
2022-11-27T04:57:39.722Z,4.32
2022-11-27T04:58:39.750Z,4.30
2022-11-27T04:59:39.726Z,4.32
2022-11-27T05:00:39.760Z,4.38
2022-11-27T05:01:39.732Z,4.32
2022-11-27T05:02:39.782Z,4.37
2022-11-27T05:03:39.701Z,4.31
2022-11-27T05:04:39.886Z,4.30
2022-11-27T05:05:39.662Z,4.38
2022-11-27T05:06:39.760Z,4.38
2022-11-27T05:07:39.727Z,4.31
2022-11-27T05:08:39.673Z,4.30
2022-11-27T05:09:40.650Z,4.32
2022-11-27T05:10:39.630Z,4.42
2022-11-27T05:11:39.613Z,4.35
2022-11-27T05:12:39.613Z,4.40
2022-11-27T05:13:39.638Z,4.32
2022-11-27T05:14:39.898Z,4.35
2022-11-27T05:15:39.586Z,4.38
2022-11-27T05:16:39.629Z,4.32
2022-11-27T05:17:39.581Z,4.32
2022-11-27T05:18:39.601Z,4.28
2022-11-27T05:19:39.564Z,4.42
2022-11-27T05:20:39.555Z,4.38
2022-11-27T05:21:39.544Z,4.37
2022-11-27T05:22:39.608Z,4.34
2022-11-27T05:23:39.555Z,4.34
2022-11-27T05:24:39.742Z,4.30
2022-11-27T05:25:39.537Z,4.22
2022-11-27T05:26:39.511Z,4.22
2022-11-27T05:27:39.509Z,4.17
2022-11-27T05:28:39.521Z,4.12
2022-11-27T05:29:39.480Z,4.04
2022-11-27T05:30:39.478Z,3.98
2022-11-27T05:31:39.564Z,4.08
2022-11-27T05:32:39.470Z,3.88
2022-11-27T05:33:39.453Z,3.94
2022-11-27T05:34:39.831Z,3.88
2022-11-27T05:35:39.435Z,3.96
2022-11-27T05:36:39.498Z,3.88
2022-11-27T05:37:39.424Z,3.83
2022-11-27T05:38:39.483Z,3.68
2022-11-27T05:39:40.416Z,3.78
2022-11-27T05:40:39.410Z,3.69
2022-11-27T05:41:39.417Z,3.73
2022-11-27T05:42:39.397Z,3.65
2022-11-27T05:43:39.391Z,3.66
2022-11-27T05:44:39.711Z,3.62
2022-11-27T05:45:39.360Z,3.58
2022-11-27T05:46:39.443Z,3.55
2022-11-27T05:47:39.349Z,3.51
2022-11-27T05:48:39.365Z,3.55
2022-11-27T05:49:39.344Z,3.47
2022-11-27T05:50:39.330Z,3.41
2022-11-27T05:51:39.357Z,3.28
2022-11-27T05:52:39.314Z,3.40
2022-11-27T05:53:39.305Z,3.36
2022-11-27T05:54:39.571Z,3.34
2022-11-27T05:55:39.288Z,3.28
2022-11-27T05:56:39.304Z,3.31
2022-11-27T05:57:39.277Z,3.29
2022-11-27T05:58:39.269Z,3.23
2022-11-27T05:59:39.266Z,3.19
2022-11-27T06:00:39.248Z,3.28
2022-11-27T06:01:39.359Z,3.10
2022-11-27T06:02:39.419Z,3.14
2022-11-27T06:03:39.308Z,3.08
2022-11-27T06:04:39.510Z,3.05
2022-11-27T06:05:39.223Z,3.14
2022-11-27T06:06:39.230Z,3.03
2022-11-27T06:07:39.261Z,3.03
2022-11-27T06:08:39.188Z,2.95
2022-11-27T06:09:39.190Z,3.00
2022-11-27T06:10:39.248Z,2.97
2022-11-27T06:11:39.211Z,2.93
2022-11-27T06:12:39.166Z,2.83
2022-11-27T06:13:39.153Z,2.75
2022-11-27T06:14:39.433Z,2.75
2022-11-27T06:15:39.159Z,2.80
2022-11-27T06:16:39.207Z,2.82
2022-11-27T06:17:39.120Z,2.69
2022-11-27T06:18:39.119Z,2.72
2022-11-27T06:19:39.113Z,2.75
2022-11-27T06:20:43.683Z,2.68
2022-11-27T06:21:41.126Z,2.68
2022-11-27T06:22:39.082Z,2.69
2022-11-27T06:23:39.084Z,2.69
2022-11-27T06:24:39.430Z,2.62
2022-11-27T06:25:39.060Z,2.68
2022-11-27T06:26:39.123Z,2.57
2022-11-27T06:27:39.078Z,2.56
2022-11-27T06:28:39.040Z,2.53
2022-11-27T06:29:39.032Z,2.54
2022-11-27T06:31:17.258Z,2.46
2022-11-27T06:31:40.067Z,2.53
2022-11-27T06:32:39.035Z,2.51
2022-11-27T06:33:39.001Z,2.42
2022-11-27T06:34:39.343Z,2.51
2022-11-27T06:35:38.980Z,2.46
2022-11-27T06:36:38.977Z,2.49
2022-11-27T06:37:39.000Z,2.61
2022-11-27T06:38:38.967Z,2.47
2022-11-27T06:39:38.960Z,2.47
2022-11-27T06:40:38.941Z,2.43
2022-11-27T06:41:38.956Z,2.35
2022-11-27T06:42:39.036Z,2.24
2022-11-27T06:43:38.917Z,2.10
2022-11-27T06:44:39.242Z,2.07
2022-11-27T06:45:38.939Z,2.13
2022-11-27T06:46:38.907Z,2.02
2022-11-27T06:47:38.933Z,2.04
2022-11-27T06:48:38.891Z,2.15
2022-11-27T06:49:38.882Z,2.13
2022-11-27T06:50:38.876Z,2.04
2022-11-27T06:51:38.863Z,2.18
2022-11-27T06:52:40.832Z,2.18
2022-11-27T06:53:39.844Z,2.15
2022-11-27T06:54:39.181Z,2.13
2022-11-27T06:55:38.837Z,2.13
2022-11-27T06:56:38.826Z,2.08
2022-11-27T06:57:38.841Z,2.18
2022-11-27T06:58:38.883Z,2.15
2022-11-27T06:59:38.787Z,2.15
2022-11-27T07:00:39.812Z,2.02
2022-11-27T07:01:38.876Z,2.07
2022-11-27T07:02:38.876Z,2.10
2022-11-27T07:03:38.779Z,2.04
2022-11-27T07:04:39.101Z,2.00
2022-11-27T07:05:38.751Z,2.04
2022-11-27T07:06:38.743Z,1.92
2022-11-27T07:07:43.548Z,1.99
2022-11-27T07:08:40.727Z,1.91
2022-11-27T07:09:38.721Z,1.94
2022-11-27T07:10:38.715Z,1.95
2022-11-27T07:11:38.717Z,1.95
2022-11-27T07:12:38.697Z,1.88
2022-11-27T07:13:38.719Z,1.88
2022-11-27T07:14:39.147Z,1.97
2022-11-27T07:15:38.676Z,1.88
2022-11-27T07:16:38.752Z,1.87
2022-11-27T07:17:38.667Z,1.84
2022-11-27T07:18:38.682Z,1.76
2022-11-27T07:19:38.653Z,1.77
2022-11-27T07:20:38.641Z,1.89
2022-11-27T07:21:38.633Z,1.84
2022-11-27T07:22:38.626Z,1.78
2022-11-27T07:23:38.645Z,1.78
2022-11-27T07:24:38.776Z,1.76
2022-11-27T07:25:38.602Z,1.81
2022-11-27T07:26:38.604Z,1.81
2022-11-27T07:27:38.593Z,1.78
2022-11-27T07:28:38.608Z,1.67
2022-11-27T07:29:38.575Z,1.77
2022-11-27T07:30:38.639Z,1.73
2022-11-27T07:31:38.600Z,1.63
2022-11-27T07:32:38.553Z,1.67
2022-11-27T07:33:38.569Z,1.66
2022-11-27T07:34:38.778Z,1.73
2022-11-27T07:35:38.529Z,1.73
2022-11-27T07:36:38.524Z,1.73
2022-11-27T07:37:38.513Z,1.71
2022-11-27T07:38:38.532Z,1.67
2022-11-27T07:40:00.986Z,1.73
2022-11-27T07:40:40.484Z,1.76
2022-11-27T07:41:38.477Z,1.76
2022-11-27T07:42:39.353Z,1.84
2022-11-27T07:43:38.487Z,1.85
2022-11-27T07:44:38.624Z,1.81
2022-11-27T07:45:38.475Z,1.84
2022-11-27T07:46:38.508Z,1.88
2022-11-27T07:47:38.431Z,1.88
2022-11-27T07:48:38.452Z,1.87
2022-11-27T07:49:38.421Z,1.91
2022-11-27T07:50:38.407Z,1.87
2022-11-27T07:51:38.406Z,1.95
2022-11-27T07:52:42.065Z,2.00
2022-11-27T07:53:39.417Z,1.91
2022-11-27T07:54:38.792Z,1.99
2022-11-27T07:55:38.368Z,2.08
2022-11-27T07:56:38.357Z,2.02
2022-11-27T07:57:38.349Z,1.99
2022-11-27T07:58:38.371Z,2.08
2022-11-27T07:59:40.008Z,1.99
2022-11-27T08:00:38.436Z,2.14
2022-11-27T08:01:38.392Z,2.06
2022-11-27T08:02:38.381Z,2.29
2022-11-27T08:03:38.330Z,2.26
2022-11-27T08:04:38.610Z,2.31
2022-11-27T08:05:39.286Z,2.35
2022-11-27T08:06:38.281Z,2.44
2022-11-27T08:07:38.339Z,2.49
2022-11-27T08:08:38.294Z,2.60
2022-11-27T08:09:38.261Z,2.75
2022-11-27T08:10:38.253Z,2.60
2022-11-27T08:11:38.249Z,2.68
2022-11-27T08:12:38.235Z,2.71
2022-11-27T08:13:38.259Z,2.62
2022-11-27T08:14:38.501Z,2.60
2022-11-27T08:15:38.218Z,2.71
2022-11-27T08:16:38.280Z,2.67
2022-11-27T08:17:38.201Z,2.62
2022-11-27T08:18:38.275Z,2.61
2022-11-27T08:19:38.211Z,2.74
2022-11-27T08:20:38.181Z,2.82
2022-11-27T08:21:38.170Z,2.92
2022-11-27T08:22:38.166Z,2.95
2022-11-27T08:23:38.152Z,2.87
2022-11-27T08:24:38.273Z,2.95
2022-11-27T08:25:38.132Z,3.03
2022-11-27T08:26:38.129Z,3.05
2022-11-27T08:27:38.127Z,3.18
2022-11-27T08:28:38.115Z,3.05
2022-11-27T08:29:38.145Z,3.13
2022-11-27T08:30:38.117Z,3.16
2022-11-27T08:31:38.140Z,3.14
2022-11-27T08:32:38.082Z,3.14
2022-11-27T08:33:38.077Z,3.22
2022-11-27T08:34:38.304Z,3.40
2022-11-27T08:35:38.064Z,3.41
2022-11-27T08:36:38.054Z,3.34
2022-11-27T08:37:38.049Z,3.32
2022-11-27T08:38:38.036Z,3.53
2022-11-27T08:39:38.056Z,3.69
2022-11-27T08:40:38.020Z,3.59
2022-11-27T08:41:38.015Z,3.68
2022-11-27T08:42:38.004Z,3.55
2022-11-27T08:43:37.998Z,3.55
2022-11-27T08:44:38.184Z,3.55
2022-11-27T08:45:38.015Z,3.51
2022-11-27T08:46:37.978Z,3.45
2022-11-27T08:47:37.970Z,3.51
2022-11-27T08:48:37.967Z,3.48
2022-11-27T08:49:42.533Z,3.40
2022-11-27T08:50:40.016Z,3.36
2022-11-27T08:51:37.934Z,3.28
2022-11-27T08:52:37.933Z,3.29
2022-11-27T08:53:38.007Z,3.42
2022-11-27T08:54:38.314Z,3.45
2022-11-27T08:55:37.907Z,3.50
2022-11-27T08:56:37.908Z,3.37
2022-11-27T08:57:37.910Z,3.47
2022-11-27T08:58:37.896Z,3.44
2022-11-27T08:59:37.912Z,3.47
2022-11-27T09:00:37.945Z,3.56
2022-11-27T09:01:37.957Z,3.51
2022-11-27T09:02:37.862Z,3.60
2022-11-27T09:03:37.920Z,3.63
2022-11-27T09:04:37.877Z,3.66
2022-11-27T09:05:37.844Z,3.80
2022-11-27T09:06:37.906Z,3.92
2022-11-27T09:07:37.877Z,3.86
2022-11-27T09:08:37.815Z,3.94
2022-11-27T09:09:37.836Z,3.91
2022-11-27T09:10:37.790Z,3.96
2022-11-27T09:11:38.796Z,4.10
2022-11-27T09:12:43.026Z,4.16
2022-11-27T09:13:39.776Z,4.08
2022-11-27T09:14:38.098Z,4.24
2022-11-27T09:15:37.766Z,4.22
2022-11-27T09:16:37.788Z,4.37
2022-11-27T09:17:37.744Z,4.20
2022-11-27T09:18:37.734Z,4.35
2022-11-27T09:19:37.757Z,4.48
2022-11-27T09:20:37.717Z,4.53
2022-11-27T09:21:37.714Z,4.55
2022-11-27T09:22:37.783Z,4.62
2022-11-27T09:23:37.711Z,4.70
2022-11-27T09:24:37.768Z,4.68
2022-11-27T09:25:37.689Z,4.74
2022-11-27T09:26:37.676Z,4.77
2022-11-27T09:27:37.669Z,4.82
2022-11-27T09:28:37.660Z,4.86
2022-11-27T09:29:37.689Z,4.82
2022-11-27T09:30:37.652Z,4.89
2022-11-27T09:31:37.686Z,4.89
2022-11-27T09:32:37.634Z,4.86
2022-11-27T09:33:37.632Z,5.04
2022-11-27T09:34:37.947Z,5.10
2022-11-27T09:35:37.735Z,5.05
2022-11-27T09:36:37.602Z,4.99
2022-11-27T09:37:37.618Z,4.90
2022-11-27T09:38:37.655Z,4.84
2022-11-27T09:39:37.572Z,4.71
2022-11-27T09:40:38.593Z,4.53
2022-11-27T09:41:37.562Z,4.60
2022-11-27T09:42:37.557Z,4.70
2022-11-27T09:43:37.546Z,4.77
2022-11-27T09:44:37.648Z,4.71
2022-11-27T09:45:37.592Z,4.70
2022-11-27T09:46:37.525Z,4.67
2022-11-27T09:47:41.412Z,4.77
2022-11-27T09:48:38.511Z,4.97
2022-11-27T09:49:37.499Z,5.10
2022-11-27T09:50:37.515Z,5.25
2022-11-27T09:51:37.591Z,5.30
2022-11-27T09:52:37.479Z,5.51
2022-11-27T09:53:37.476Z,5.61
2022-11-27T09:54:37.580Z,5.72
2022-11-27T09:55:37.490Z,5.84
2022-11-27T09:56:37.448Z,5.90
2022-11-27T09:57:37.438Z,5.93
2022-11-27T09:58:37.430Z,6.08
2022-11-27T09:59:37.422Z,6.20
2022-11-27T10:00:37.444Z,6.36
2022-11-27T10:01:45.199Z,6.44
2022-11-27T10:02:39.648Z,6.57
2022-11-27T10:03:37.390Z,6.48
2022-11-27T10:04:57.964Z,6.60
2022-11-27T10:05:39.401Z,6.44
2022-11-27T10:06:37.365Z,6.45
2022-11-27T10:07:37.435Z,6.45
2022-11-27T10:08:37.351Z,6.44
2022-11-27T10:09:37.341Z,6.49
2022-11-27T10:10:37.439Z,6.52
2022-11-27T10:11:37.322Z,6.60
2022-11-27T10:12:37.324Z,6.79
2022-11-27T10:13:37.309Z,6.84
2022-11-27T10:14:37.321Z,6.97
2022-11-27T10:15:37.318Z,6.88
2022-11-27T10:16:41.386Z,6.85
2022-11-27T10:17:39.354Z,6.87
2022-11-27T10:18:37.275Z,7.03
2022-11-27T10:19:37.261Z,7.00
2022-11-27T10:20:37.288Z,7.03
2022-11-27T10:21:37.250Z,7.00
2022-11-27T10:22:37.243Z,7.21
2022-11-27T10:23:37.239Z,7.14
2022-11-27T10:24:37.255Z,7.05
2022-11-27T10:25:37.218Z,7.14
2022-11-27T10:26:37.305Z,7.00
2022-11-27T10:27:37.198Z,7.03
2022-11-27T10:28:37.188Z,7.13
2022-11-27T10:29:37.188Z,7.14
2022-11-27T10:30:37.181Z,7.03
2022-11-27T10:31:37.295Z,7.10
2022-11-27T10:33:39.164Z,7.03
2022-11-27T10:34:37.166Z,6.99
2022-11-27T10:35:37.159Z,7.00
2022-11-27T10:36:37.166Z,7.07
2022-11-27T10:37:37.124Z,7.10
2022-11-27T10:38:37.120Z,7.24
2022-11-27T10:39:37.112Z,7.13
2022-11-27T10:40:37.102Z,7.20
2022-11-27T10:41:52.404Z,7.11
2022-11-27T10:42:39.152Z,7.06
2022-11-27T10:43:38.082Z,7.23
2022-11-27T10:44:37.074Z,7.15
2022-11-27T10:45:37.103Z,7.17
2022-11-27T10:46:37.079Z,7.11
2022-11-27T10:47:37.046Z,7.11
2022-11-27T10:48:37.037Z,7.20
2022-11-27T10:49:37.032Z,7.17
2022-11-27T10:50:37.030Z,7.17
2022-11-27T10:51:37.051Z,7.24
2022-11-27T10:52:37.008Z,7.15
2022-11-27T10:53:37.006Z,7.21
2022-11-27T10:54:36.996Z,7.28
2022-11-27T10:55:36.997Z,7.29
2022-11-27T10:56:37.007Z,7.42
2022-11-27T10:57:36.974Z,7.29
2022-11-27T10:58:37.030Z,7.31
2022-11-27T10:59:36.951Z,7.31
2022-11-27T11:00:36.950Z,7.45
2022-11-27T11:01:37.016Z,7.35
2022-11-27T11:02:36.991Z,7.38
2022-11-27T11:03:36.927Z,7.51
2022-11-27T11:04:38.637Z,7.38
2022-11-27T11:06:11.657Z,7.45
2022-11-27T11:06:38.925Z,7.66
2022-11-27T11:07:36.929Z,7.57
2022-11-27T11:08:36.884Z,7.63
2022-11-27T11:09:36.877Z,7.60
2022-11-27T11:10:36.865Z,7.58
2022-11-27T11:11:36.890Z,7.63
2022-11-27T11:12:36.865Z,7.63
2022-11-27T11:13:36.853Z,7.63
2022-11-27T11:14:36.912Z,7.73
2022-11-27T11:15:36.831Z,7.72
2022-11-27T11:16:36.886Z,7.67
2022-11-27T11:17:36.821Z,7.76
2022-11-27T11:18:36.823Z,7.60
2022-11-27T11:19:36.800Z,7.76
2022-11-27T11:20:36.795Z,7.75
2022-11-27T11:21:36.817Z,7.83
2022-11-27T11:22:36.783Z,7.85
2022-11-27T11:23:36.774Z,7.73
2022-11-27T11:24:36.767Z,7.80
2022-11-27T11:25:36.754Z,7.60
2022-11-27T11:26:36.778Z,7.72
2022-11-27T11:27:36.738Z,7.43
2022-11-27T11:28:39.695Z,7.42
2022-11-27T11:29:37.729Z,7.20
2022-11-27T11:30:36.791Z,7.13
2022-11-27T11:31:36.758Z,7.06
2022-11-27T11:32:36.702Z,7.13
2022-11-27T11:33:36.689Z,7.21
2022-11-27T11:34:36.688Z,7.02
2022-11-27T11:35:36.687Z,6.87
2022-11-27T11:36:36.671Z,6.85
2022-11-27T11:37:36.688Z,6.92
2022-11-27T11:38:36.651Z,6.93
2022-11-27T11:39:36.642Z,7.15
2022-11-27T11:40:36.647Z,7.25
2022-11-27T11:41:36.631Z,7.61
2022-11-27T11:42:36.652Z,7.75
2022-11-27T11:43:36.618Z,7.85
2022-11-27T11:44:36.614Z,8.08
2022-11-27T11:45:36.677Z,8.08
2022-11-27T11:46:36.857Z,8.00
2022-11-27T11:47:36.615Z,8.12
2022-11-27T11:48:36.579Z,8.10
2022-11-27T11:49:36.572Z,8.23
2022-11-27T11:50:36.568Z,8.20
2022-11-27T11:51:36.555Z,8.36
2022-11-27T11:52:36.579Z,8.28
2022-11-27T11:53:36.545Z,8.28
2022-11-27T11:54:36.528Z,8.26
2022-11-27T11:55:36.523Z,8.33
2022-11-27T11:56:36.516Z,8.28
2022-11-27T11:57:36.537Z,8.16
2022-11-27T11:58:36.504Z,8.06
2022-11-27T11:59:38.576Z,8.10
2022-11-27T12:00:53.086Z,8.13
2022-11-27T12:01:38.500Z,8.12
2022-11-27T12:02:36.641Z,8.24
2022-11-27T12:03:36.470Z,8.28
2022-11-27T12:04:36.520Z,8.24
2022-11-27T12:05:36.445Z,8.45
2022-11-27T12:06:36.434Z,8.10
2022-11-27T12:07:36.526Z,8.12
2022-11-27T12:08:36.422Z,8.08
2022-11-27T12:09:36.437Z,8.00
2022-11-27T12:10:36.418Z,7.98
2022-11-27T12:11:36.403Z,8.10
2022-11-27T12:12:36.425Z,8.31
2022-11-27T12:13:36.388Z,8.36
2022-11-27T12:14:36.376Z,8.36
2022-11-27T12:15:36.374Z,8.38
2022-11-27T12:16:36.403Z,8.45
2022-11-27T12:17:36.354Z,8.48
2022-11-27T12:18:36.589Z,8.53
2022-11-27T12:19:36.341Z,8.58
2022-11-27T12:20:36.336Z,8.66
2022-11-27T12:21:36.325Z,8.53
2022-11-27T12:22:36.315Z,8.61
2022-11-27T12:23:36.523Z,8.49
2022-11-27T12:24:36.298Z,8.51
2022-11-27T12:25:36.293Z,8.51
2022-11-27T12:26:36.291Z,8.61
2022-11-27T12:27:36.287Z,8.60
2022-11-27T12:28:36.526Z,8.61
2022-11-27T12:29:36.272Z,8.63
2022-11-27T12:30:36.252Z,8.58
2022-11-27T12:32:10.204Z,8.56
2022-11-27T12:32:36.243Z,8.61
2022-11-27T12:33:36.251Z,8.44
2022-11-27T12:34:36.324Z,8.45
2022-11-27T12:35:36.234Z,8.09
2022-11-27T12:36:36.252Z,7.83
2022-11-27T12:37:36.221Z,7.72
2022-11-27T12:38:36.526Z,7.72
2022-11-27T12:39:36.192Z,7.75
2022-11-27T12:40:36.184Z,7.80
2022-11-27T12:41:36.160Z,7.67
2022-11-27T12:42:36.159Z,7.56
2022-11-27T12:43:36.175Z,7.43
2022-11-27T12:44:36.144Z,7.31
2022-11-27T12:45:36.154Z,7.29
2022-11-27T12:46:36.114Z,7.29
2022-11-27T12:47:38.972Z,7.25
2022-11-27T12:48:37.132Z,7.20
2022-11-27T12:49:36.099Z,7.13
2022-11-27T12:50:36.158Z,7.06
2022-11-27T12:51:36.082Z,7.13
2022-11-27T12:52:36.074Z,6.97
2022-11-27T12:53:36.083Z,6.99
2022-11-27T12:54:36.053Z,7.10
2022-11-27T12:55:36.047Z,7.06
2022-11-27T12:56:36.051Z,7.18
2022-11-27T12:57:36.037Z,7.18
2022-11-27T12:58:36.081Z,7.28
2022-11-27T12:59:36.021Z,7.18
2022-11-27T13:00:36.002Z,7.24
2022-11-27T13:01:36.083Z,7.32
2022-11-27T13:02:36.115Z,7.33
2022-11-27T13:03:36.017Z,7.32
2022-11-27T13:04:35.981Z,7.32
2022-11-27T13:05:35.966Z,7.32
2022-11-27T13:06:36.029Z,7.25
2022-11-27T13:07:36.032Z,7.28
2022-11-27T13:08:35.955Z,7.31
2022-11-27T13:09:35.959Z,7.28
2022-11-27T13:10:35.941Z,7.21
2022-11-27T13:11:35.922Z,7.21
2022-11-27T13:12:35.914Z,7.28
2022-11-27T13:13:35.918Z,7.35
2022-11-27T13:14:35.918Z,7.39
2022-11-27T13:15:35.893Z,7.40
2022-11-27T13:16:35.943Z,7.48
2022-11-27T13:17:35.888Z,7.39
2022-11-27T13:18:35.866Z,7.50
2022-11-27T13:19:35.928Z,7.48